Time;durP1;ratioP1;P1;durP2;ratioP2;P2;SDS_P1;SDS_P2;PMS_P1;PMS_P2;Temp;Humidity;BMP_temperature;BMP_pressure;BME280_temperature;BME280_humidity;BME280_pressure;Samples;Min_cycle;Max_cycle;Signal;HPM_P1;HPM_P2
2023/04/20 00:00:18;;;;;;;;;59.75;46.00;;;;;6.71;100.00;98584.97;4823971;28;101599;-73
2023/04/20 00:03:20;;;;;;;;;58.75;43.50;;;;;6.73;100.00;98587.47;4815181;28;107129;-72
2023/04/20 00:06:17;;;;;;;;;70.33;49.33;;;;;6.64;100.00;98580.47;4824009;28;102118;-73
2023/04/20 00:09:11;;;;;;;;;68.33;50.00;;;;;6.60;100.00;98577.31;4824703;28;102513;-72
2023/04/20 00:12:04;;;;;;;;;68.00;48.75;;;;;6.63;100.00;98578.81;4828392;29;101778;-72
2023/04/20 00:15:04;;;;;;;;;69.00;51.00;;;;;6.65;100.00;98580.31;4829125;29;107339;-72
2023/04/20 00:17:57;;;;;;;;;71.00;52.33;;;;;6.67;100.00;98580.13;4828445;29;102200;-74
2023/04/20 00:20:42;;;;;;;;;69.67;52.67;;;;;6.58;100.00;98575.81;4830227;29;102674;-72
2023/04/20 00:23:34;;;;;;;;;61.00;46.00;;;;;6.67;100.00;98577.44;4828708;28;101732;-72
2023/04/20 00:26:27;;;;;;;;;58.50;42.75;;;;;6.72;100.00;98575.06;4820273;28;107026;-72
2023/04/20 00:29:16;;;;;;;;;62.25;46.00;;;;;6.66;100.00;98567.72;4826146;28;102600;-72
2023/04/20 00:32:01;;;;;;;;;68.50;47.00;;;;;6.68;100.00;98563.00;4824561;28;101609;-73
2023/04/20 00:34:38;;;;;;;;;59.00;46.00;;;;;6.66;100.00;98581.16;4821586;28;101823;-73
2023/04/20 00:37:18;;;;;;;;;65.33;47.67;;;;;6.66;100.00;98575.78;4843638;28;103017;-73
2023/04/20 00:40:01;;;;;;;;;63.25;47.00;;;;;6.66;100.00;98565.84;4842081;28;101946;-73
2023/04/20 00:42:44;;;;;;;;;61.75;47.00;;;;;6.67;100.00;98577.44;4846197;28;102760;-73
2023/04/20 00:45:33;;;;;;;;;64.75;46.25;;;;;6.72;100.00;98575.06;4835115;28;101643;-72
2023/04/20 00:48:22;;;;;;;;;54.50;41.75;;;;;6.77;100.00;98571.84;4844417;28;102377;-72
2023/04/20 00:51:13;;;;;;;;;58.25;45.00;;;;;6.78;100.00;98565.47;4840529;28;101745;-72
2023/04/20 00:53:57;;;;;;;;;53.50;39.50;;;;;6.77;100.00;98553.03;4837984;28;101694;-72
2023/04/20 00:56:38;;;;;;;;;51.00;39.00;;;;;6.76;100.00;98554.88;4844375;28;101633;-72
2023/04/20 00:59:18;;;;;;;;;59.75;45.75;;;;;6.70;100.00;98548.38;4836973;29;106869;-72
2023/04/20 01:02:08;;;;;;;;;52.50;41.25;;;;;6.81;100.00;98563.25;4838120;28;101687;-71
2023/04/20 01:05:01;;;;;;;;;58.25;42.75;;;;;6.81;100.00;98557.88;4845528;28;101820;-72
2023/04/20 01:07:42;;;;;;;;;62.75;45.75;;;;;6.78;100.00;98566.28;4841916;28;101936;-72
2023/04/20 01:10:22;;;;;;;;;56.00;41.75;;;;;6.80;100.00;98564.25;4844766;28;107370;-72
2023/04/20 01:12:59;;;;;;;;;45.00;33.75;;;;;6.88;100.00;98558.84;4843293;28;101570;-72
2023/04/20 01:15:30;;;;;;;;;38.75;31.25;;;;;6.94;100.00;98552.72;4844464;28;101605;-72
2023/04/20 01:18:13;;;;;;;;;29.75;25.25;;;;;6.93;100.00;98547.56;4850749;28;101860;-72
2023/04/20 01:21:02;;;;;;;;;25.25;21.75;;;;;7.01;100.00;98552.88;4844621;28;107228;-72
2023/04/20 01:23:54;;;;;;;;;37.50;30.50;;;;;6.97;100.00;98552.41;4850877;28;102080;-72
2023/04/20 01:27:00;;;;;;;;;35.00;28.00;;;;;6.97;100.00;98552.41;4844768;28;101669;-72
2023/04/20 01:29:58;;;;;;;;;29.75;23.50;;;;;7.02;100.00;98550.00;4845050;28;101869;-72
2023/04/20 01:33:06;;;;;;;;;26.75;23.00;;;;;7.07;100.00;98547.59;4847071;28;108125;-72
2023/04/20 01:36:00;;;;;;;;;30.00;28.75;;;;;7.07;100.00;98552.13;4853724;28;101784;-72
2023/04/20 01:38:55;;;;;;;;;20.00;17.00;;;;;7.10;100.00;98541.03;4849983;28;103098;-72
2023/04/20 01:41:51;;;;;;;;;21.25;20.25;;;;;7.14;100.00;98548.56;4843779;28;101735;-72
2023/04/20 01:44:51;;;;;;;;;20.00;16.50;;;;;7.22;100.00;98552.19;4846938;28;107337;-71
2023/04/20 01:47:42;;;;;;;;;14.75;12.25;;;;;7.23;100.00;98546.63;4846752;28;102087;-72
2023/04/20 01:50:35;;;;;;;;;29.25;28.00;;;;;7.17;100.00;98550.88;4850401;28;101903;-72
2023/04/20 01:53:31;;;;;;;;;24.50;20.50;;;;;7.23;100.00;98560.09;4847980;28;102278;-73
2023/04/20 01:56:40;;;;;;;;;15.25;9.00;;;;;7.22;100.00;98550.34;4845046;28;106448;-72
2023/04/20 01:59:36;;;;;;;;;18.75;16.00;;;;;7.30;100.00;98561.00;4843185;28;101861;-72
2023/04/20 02:02:27;;;;;;;;;14.00;12.50;;;;;7.33;100.00;98552.59;4848509;28;102014;-73
2023/04/20 02:05:19;;;;;;;;;7.50;7.00;;;;;7.38;100.00;98554.75;4840481;28;101669;-72
2023/04/20 02:08:15;;;;;;;;;15.00;14.00;;;;;7.41;100.00;98570.50;4848073;28;107136;-73
2023/04/20 02:11:08;;;;;;;;;6.00;5.00;;;;;7.43;100.00;98565.81;4846472;29;102020;-73
2023/04/20 02:14:02;;;;;;;;;8.50;5.00;;;;;7.40;100.00;98564.28;4848946;28;101569;-73
2023/04/20 02:16:53;;;;;;;;;15.00;14.25;;;;;7.40;100.00;98558.91;4851834;28;101936;-73
2023/04/20 02:19:55;;;;;;;;;22.00;16.00;;;;;7.40;100.00;98556.22;4820823;28;106794;-73
2023/04/20 02:22:54;;;;;;;;;18.00;16.00;;;;;7.44;100.00;98562.06;4847422;28;101652;-73
2023/04/20 02:25:50;;;;;;;;;19.75;15.25;;;;;7.49;100.00;98562.38;4850902;28;101945;-73
2023/04/20 02:28:44;;;;;;;;;10.50;7.50;;;;;7.49;100.00;98557.81;4846414;28;101595;-73
2023/04/20 02:31:51;;;;;;;;;24.50;19.25;;;;;7.41;100.00;98560.59;4848059;28;107039;-73
2023/04/20 02:34:45;;;;;;;;;34.75;30.50;;;;;7.23;100.00;98543.09;4850515;28;103040;-72
2023/04/20 02:37:42;;;;;;;;;38.25;34.00;;;;;7.18;100.00;98551.72;4846523;28;101919;-73
2023/04/20 02:40:35;;;;;;;;;33.25;28.75;;;;;7.07;100.00;98542.22;4845849;28;101983;-73
2023/04/20 02:43:28;;;;;;;;;40.50;33.25;;;;;7.14;100.00;98556.63;4844105;28;102354;-72
2023/04/20 02:46:21;;;;;;;;;28.75;27.25;;;;;7.20;100.00;98554.22;4841979;28;101781;-72
2023/04/20 02:49:15;;;;;;;;;24.25;21.00;;;;;7.16;100.00;98551.88;4845432;28;102023;-73
2023/04/20 02:52:08;;;;;;;;;16.75;15.75;;;;;7.26;100.00;98566.94;4846697;28;101712;-73
2023/04/20 02:54:55;;;;;;;;;18.50;15.00;;;;;7.28;100.00;98562.22;4835216;28;106941;-72
2023/04/20 02:57:41;;;;;;;;;19.00;17.00;;;;;7.27;100.00;98566.75;4850267;28;102247;-72
2023/04/20 03:00:33;;;;;;;;;14.75;11.50;;;;;7.29;100.00;98572.81;4844266;28;101859;-73
2023/04/20 03:03:27;;;;;;;;;15.75;13.25;;;;;7.30;100.00;98562.88;4845073;28;101905;-73
2023/04/20 03:06:29;;;;;;;;;23.50;21.75;;;;;7.28;100.00;98562.22;4848229;28;107003;-73
2023/04/20 03:09:27;;;;;;;;;28.75;24.00;;;;;7.26;100.00;98564.25;4842381;28;102086;-73
2023/04/20 03:12:22;;;;;;;;;35.00;28.50;;;;;7.18;100.00;98557.09;4846895;28;102248;-72
2023/04/20 03:15:17;;;;;;;;;21.00;15.00;;;;;7.24;100.00;98571.69;4844641;28;102709;-72
2023/04/20 03:18:17;;;;;;;;;38.50;28.50;;;;;7.20;100.00;98573.91;4838317;28;106810;-73
2023/04/20 03:21:11;;;;;;;;;27.00;20.00;;;;;7.22;100.00;98571.84;4847927;28;101831;-73
2023/04/20 03:24:15;;;;;;;;;44.25;35.50;;;;;7.03;100.00;98567.78;4850621;28;101647;-72
2023/04/20 03:27:28;;;;;;;;;29.50;27.00;;;;;7.17;100.00;98576.94;4848462;28;102015;-73
2023/04/20 03:30:21;;;;;;;;;28.25;24.50;;;;;7.17;100.00;98583.16;4841448;28;106906;-73
2023/04/20 03:33:15;;;;;;;;;28.00;24.75;;;;;7.10;100.00;98568.75;4839872;28;102288;-73
2023/04/20 03:36:16;;;;;;;;;33.25;27.25;;;;;7.15;100.00;98577.13;4846478;28;102882;-73
2023/04/20 03:39:12;;;;;;;;;33.50;27.50;;;;;7.15;100.00;98582.50;4844737;28;101682;-72
2023/04/20 03:42:08;;;;;;;;;34.00;30.25;;;;;7.18;100.00;98581.28;4848034;28;109117;-72
2023/04/20 03:44:57;;;;;;;;;23.25;20.00;;;;;7.25;100.00;98579.53;4848226;28;102364;-72
2023/04/20 03:47:56;;;;;;;;;27.75;22.50;;;;;7.24;100.00;98577.06;4847737;28;101940;-72
2023/04/20 03:50:46;;;;;;;;;27.25;22.75;;;;;7.24;100.00;98574.38;4848326;28;101812;-72
2023/04/20 03:53:40;;;;;;;;;42.50;33.50;;;;;7.15;100.00;98577.13;4840771;28;106727;-72
2023/04/20 03:56:40;;;;;;;;;37.75;33.75;;;;;7.15;100.00;98587.03;4842191;28;101900;-72
2023/04/20 03:59:33;;;;;;;;;32.25;27.00;;;;;7.21;100.00;98583.63;4847536;29;101786;-72
2023/04/20 04:02:37;;;;;;;;;33.50;27.50;;;;;7.24;100.00;98587.81;4852574;28;101762;-72
2023/04/20 04:05:43;;;;;;;;;37.75;29.25;;;;;7.21;100.00;98582.78;4847369;28;107166;-71
2023/04/20 04:08:37;;;;;;;;;29.00;23.25;;;;;7.31;100.00;98583.38;4847630;28;101857;-72
2023/04/20 04:11:30;;;;;;;;;20.00;18.00;;;;;7.39;100.00;98594.91;4841732;29;101740;-71
2023/04/20 04:14:25;;;;;;;;;24.75;20.75;;;;;7.29;100.00;98572.81;4849091;28;101896;-72
2023/04/20 04:17:17;;;;;;;;;22.50;19.75;;;;;7.19;100.00;98564.16;4831846;28;107058;-73
2023/04/20 04:20:17;;;;;;;;;21.50;17.50;;;;;7.36;100.00;98589.88;4844622;28;101578;-72
2023/04/20 04:23:11;;;;;;;;;33.75;30.50;;;;;7.34;100.00;98591.09;4844515;28;104751;-72
2023/04/20 04:26:04;;;;;;;;;37.75;26.25;;;;;7.37;100.00;98590.72;4844794;28;101973;-72
2023/04/20 04:28:57;;;;;;;;;31.75;27.75;;;;;7.27;100.00;98585.59;4844145;28;106722;-72
2023/04/20 04:31:52;;;;;;;;;28.25;26.50;;;;;7.25;100.00;98581.44;4844336;29;101830;-72
2023/04/20 04:34:51;;;;;;;;;29.75;25.50;;;;;7.36;100.00;98597.97;4846945;28;101850;-73
2023/04/20 04:37:46;;;;;;;;;27.75;24.25;;;;;7.41;100.00;98592.03;4848397;28;102277;-73
2023/04/20 04:40:44;;;;;;;;;23.75;22.00;;;;;7.44;100.00;98600.56;4848763;28;107488;-73
2023/04/20 04:43:38;;;;;;;;;26.75;22.00;;;;;7.53;100.00;98598.66;4844089;28;101987;-73
2023/04/20 04:46:35;;;;;;;;;22.75;19.50;;;;;7.63;100.00;98600.06;4846085;28;102213;-73
2023/04/20 04:49:28;;;;;;;;;24.75;20.00;;;;;7.79;100.00;98599.06;4849223;29;101920;-73
2023/04/20 04:52:27;;;;;;;;;30.50;27.00;;;;;7.88;100.00;98606.03;4846976;28;106889;-72
2023/04/20 04:55:23;;;;;;;;;35.75;28.00;;;;;7.93;100.00;98605.47;4844168;29;101843;-72
2023/04/20 04:58:19;;;;;;;;;34.50;28.50;;;;;8.05;100.00;98610.25;4850849;28;101817;-72
2023/04/20 05:01:11;;;;;;;;;37.00;30.50;;;;;8.06;100.00;98602.97;4851344;29;102140;-73
2023/04/20 05:04:09;;;;;;;;;42.50;35.75;;;;;7.88;100.00;98603.34;4849436;28;106859;-73
2023/04/20 05:07:00;;;;;;;;;43.25;36.00;;;;;7.94;100.00;98613.38;4848846;28;103003;-72
2023/04/20 05:09:55;;;;;;;;;43.00;36.25;;;;;7.94;100.00;98626.84;4842905;28;101674;-72
2023/04/20 05:12:52;;;;;;;;;39.00;31.50;;;;;7.98;100.00;98624.63;4849163;28;101647;-72
2023/04/20 05:15:46;;;;;;;;;49.75;34.75;;;;;7.94;100.00;98621.47;4848511;28;108190;-72
2023/04/20 05:18:39;;;;;;;;;48.75;38.25;;;;;7.86;100.00;98608.09;4849158;28;101588;-73
2023/04/20 05:21:31;;;;;;;;;49.50;37.50;;;;;7.94;100.00;98621.47;4839402;28;102116;-72
2023/04/20 05:24:24;;;;;;;;;48.25;36.00;;;;;8.01;100.00;98621.59;4843553;28;101690;-73
2023/04/20 05:27:18;;;;;;;;;36.25;30.25;;;;;8.15;100.00;98617.22;4844870;28;107506;-72
2023/04/20 05:30:12;;;;;;;;;38.75;30.50;;;;;7.98;100.00;98598.53;4849217;28;101967;-72
2023/04/20 05:33:21;;;;;;;;;36.75;29.25;;;;;8.24;100.00;98626.88;4850675;28;101740;-72
2023/04/20 05:36:18;;;;;;;;;41.25;33.00;;;;;8.18;100.00;98609.59;4852494;28;101812;-72
2023/04/20 05:39:22;;;;;;;;;42.25;34.25;;;;;8.17;100.00;98620.56;4842208;28;106887;-73
2023/04/20 05:42:16;;;;;;;;;36.25;34.25;;;;;8.22;100.00;98624.38;4844041;28;101839;-73
2023/04/20 05:45:13;;;;;;;;;56.50;41.00;;;;;7.98;100.00;98633.53;4848927;28;101933;-72
2023/04/20 05:48:06;;;;;;;;;42.25;35.00;;;;;7.98;100.00;98632.69;4847994;28;101739;-73
2023/04/20 05:51:01;;;;;;;;;42.00;34.50;;;;;7.83;100.00;98639.94;4844120;28;107315;-72
2023/04/20 05:53:53;;;;;;;;;46.25;37.25;;;;;7.79;100.00;98617.91;4848896;28;102114;-72
2023/04/20 05:56:57;;;;;;;;;52.25;39.75;;;;;7.81;100.00;98633.88;4836888;28;101676;-72
2023/04/20 05:59:55;;;;;;;;;45.25;33.25;;;;;7.89;100.00;98623.88;4847931;28;101919;-72
2023/04/20 06:02:44;;;;;;;;;38.00;34.50;;;;;8.02;100.00;98642.91;4851191;28;107122;-72
2023/04/20 06:05:36;;;;;;;;;43.50;29.50;;;;;8.14;100.00;98642.47;4848376;28;102038;-72
2023/04/20 06:08:34;;;;;;;;;35.50;29.75;;;;;8.31;100.00;98641.31;4846136;28;101656;-72
2023/04/20 06:11:28;;;;;;;;;27.75;22.75;;;;;8.57;100.00;98649.75;4843389;28;101790;-72
2023/04/20 06:14:26;;;;;;;;;24.50;19.00;;;;;8.78;99.57;98647.13;4842118;28;107132;-73
2023/04/20 06:17:24;;;;;;;;;31.00;24.75;;;;;9.02;97.50;98655.91;4840630;28;101918;-73
2023/04/20 06:20:29;;;;;;;;;27.50;20.75;;;;;9.21;96.60;98653.44;4849317;28;101728;-73
2023/04/20 06:23:27;;;;;;;;;38.25;32.50;;;;;9.09;96.84;98660.38;4838429;28;101904;-72
2023/04/20 06:26:24;;;;;;;;;48.00;33.75;;;;;9.37;96.83;98657.75;4836709;28;107546;-72
2023/04/20 06:29:24;;;;;;;;;;;;;;;;;;;;;
2023/04/20 06:32:17;;;;;;;;;48.75;37.75;;;;;9.74;91.62;98621.53;4850070;28;102014;-72
2023/04/20 06:35:07;;;;;;;;;48.25;37.00;;;;;10.02;91.46;98654.81;4846869;28;101604;-72
2023/04/20 06:38:04;;;;;;;;;38.00;30.25;;;;;10.02;89.66;98643.16;4849004;28;107340;-71
2023/04/20 06:41:00;;;;;;;;;38.00;29.00;;;;;10.38;90.04;98656.53;4850732;28;101873;-71
2023/04/20 06:43:53;;;;;;;;;45.25;37.75;;;;;10.28;89.43;98663.13;4848028;28;101971;-72
2023/04/20 06:46:50;;;;;;;;;22.25;15.00;;;;;10.37;90.41;98666.50;4850394;28;101668;-73
2023/04/20 06:49:57;;;;;;;;;37.00;26.25;;;;;10.42;90.13;98666.75;4848959;28;107288;-73
2023/04/20 06:52:51;;;;;;;;;34.25;28.25;;;;;10.26;90.09;98656.28;4842253;28;101847;-73
2023/04/20 06:55:45;;;;;;;;;37.50;27.50;;;;;10.32;89.24;98658.16;4847956;28;102081;-74
2023/04/20 06:58:44;;;;;;;;;33.75;32.25;;;;;10.43;90.40;98648.69;4832201;28;102228;-73
2023/04/20 07:01:40;;;;;;;;;33.50;27.50;;;;;10.65;85.21;98648.38;4845413;28;107343;-73
2023/04/20 07:04:37;;;;;;;;;27.00;23.50;;;;;10.89;87.13;98660.56;4850717;28;101677;-71
2023/04/20 07:07:33;;;;;;;;;28.00;22.50;;;;;10.99;86.26;98649.34;4847447;28;101829;-71
2023/04/20 07:10:28;;;;;;;;;21.00;18.75;;;;;11.02;84.20;98651.66;4854532;28;102251;-72
2023/04/20 07:13:23;;;;;;;;;35.25;27.00;;;;;10.91;85.17;98650.38;4849844;28;106795;-72
2023/04/20 07:16:16;;;;;;;;;45.75;36.50;;;;;10.95;87.05;98638.09;4850775;28;102080;-71
2023/04/20 07:19:12;;;;;;;;;41.75;35.75;;;;;10.87;88.15;98659.09;4851241;28;101960;-72
2023/04/20 07:22:05;;;;;;;;;41.25;36.00;;;;;11.07;87.80;98660.03;4849051;28;102406;-73
2023/04/20 07:25:21;;;;;;;;;53.00;41.75;;;;;10.87;85.55;98667.22;4844868;28;106867;-73
2023/04/20 07:28:17;;;;;;;;;50.75;39.50;;;;;11.00;88.09;98675.38;4841749;29;102086;-73
2023/04/20 07:31:09;;;;;;;;;43.75;31.75;;;;;11.15;86.59;98662.53;4846887;28;101844;-73
2023/04/20 07:34:00;;;;;;;;;48.50;36.50;;;;;10.95;84.81;98672.44;4850331;28;101666;-73
2023/04/20 07:37:02;;;;;;;;;37.25;32.50;;;;;11.24;86.43;98655.91;4847685;28;106775;-73
2023/04/20 07:40:05;;;;;;;;;40.25;35.25;;;;;11.25;84.41;98665.69;4847287;28;101770;-73
2023/04/20 07:43:08;;;;;;;;;44.50;37.00;;;;;11.02;84.79;98622.75;4848780;28;102192;-73
2023/04/20 07:45:59;;;;;;;;;43.75;33.75;;;;;11.53;82.88;98662.81;4848685;28;102878;-73
2023/04/20 07:48:52;;;;;;;;;35.50;32.25;;;;;11.70;80.63;98657.88;4846244;29;107046;-73
2023/04/20 07:51:50;;;;;;;;;27.50;24.25;;;;;11.94;78.93;98643.72;4849443;28;101925;-74
2023/04/20 07:54:58;;;;;;;;;27.75;25.00;;;;;12.15;79.79;98646.25;4847606;28;103145;-73
2023/04/20 07:57:55;;;;;;;;;26.75;24.75;;;;;12.32;77.85;98642.03;4851498;29;102087;-72
2023/04/20 08:00:50;;;;;;;;;31.25;28.75;;;;;12.07;77.04;98603.91;4837783;28;107093;-72
2023/04/20 08:03:44;;;;;;;;;22.75;21.00;;;;;12.72;76.98;98650.09;4843922;28;101673;-72
2023/04/20 08:06:48;;;;;;;;;21.75;20.00;;;;;12.82;77.89;98645.88;4841021;28;101604;-72
2023/04/20 08:09:39;;;;;;;;;23.50;22.25;;;;;13.06;78.19;98655.16;4846235;28;102529;-73
2023/04/20 08:12:32;;;;;;;;;21.25;16.00;;;;;13.12;75.81;98650.78;4848888;28;106879;-73
2023/04/20 08:15:23;;;;;;;;;23.25;19.50;;;;;13.13;76.17;98661.44;4846523;28;101735;-72
2023/04/20 08:18:16;;;;;;;;;25.75;22.25;;;;;13.11;76.06;98662.69;4835284;28;102048;-73
2023/04/20 08:21:11;;;;;;;;;24.75;20.00;;;;;12.91;72.59;98668.19;4841023;28;102020;-71
2023/04/20 08:24:07;;;;;;;;;19.25;17.50;;;;;13.16;73.29;98662.88;4843071;28;106824;-72
2023/04/20 08:27:07;;;;;;;;;18.75;15.75;;;;;13.28;74.37;98666.59;4846304;28;101878;-72
2023/04/20 08:30:03;;;;;;;;;27.00;24.50;;;;;13.09;76.94;98671.03;4843331;28;105733;-72
2023/04/20 08:32:58;;;;;;;;;26.75;20.50;;;;;13.22;75.87;98665.56;4847668;28;101994;-73
2023/04/20 08:35:59;;;;;;;;;16.75;15.00;;;;;13.34;74.19;98663.84;4844610;28;106673;-72
2023/04/20 08:39:23;;;;;;;;;20.50;18.75;;;;;13.24;74.66;98662.63;4849898;28;101662;-72
2023/04/20 08:42:22;;;;;;;;;21.00;19.00;;;;;12.97;74.98;98672.72;4843619;28;101784;-72
2023/04/20 08:45:09;;;;;;;;;25.25;21.50;;;;;12.90;72.54;98669.22;4855689;23;101579;-73
2023/04/20 08:47:51;;;;;;;;;22.25;18.75;;;;;12.95;72.88;98669.41;4812499;28;107146;-73
2023/04/20 17:40:30;;;;;;;;;2.75;2.00;;;;;13.49;66.98;98594.81;4021031;28;104575;-70
2023/04/20 17:42:56;;;;;;;;;2.00;2.00;;;;;13.43;67.47;98601.09;4845410;28;102287;-71
2023/04/20 17:45:35;;;;;;;;;2.50;2.50;;;;;13.36;67.05;98602.00;4840355;28;102308;-71
2023/04/20 17:48:30;;;;;;;;;3.25;2.00;;;;;13.29;68.57;98593.03;4837072;28;107627;-71
2023/04/20 17:51:29;;;;;;;;;0.50;0.50;;;;;13.30;68.73;98592.00;4847556;28;102001;-71
2023/04/20 17:54:33;;;;;;;;;3.00;2.00;;;;;13.17;68.96;98591.25;4838257;28;102459;-72
2023/04/20 17:57:42;;;;;;;;;1.50;1.50;;;;;13.08;69.94;98596.06;4835290;28;102060;-71
2023/04/20 18:00:35;;;;;;;;;3.00;3.00;;;;;12.97;70.47;98602.16;4849244;28;107861;-71
2023/04/20 18:03:30;;;;;;;;;4.00;3.00;;;;;12.77;70.99;98580.56;4846605;28;102343;-72
2023/04/20 18:06:26;;;;;;;;;4.00;3.00;;;;;12.67;70.26;98587.50;4843643;28;102426;-72
2023/04/20 18:09:26;;;;;;;;;4.25;4.25;;;;;12.53;71.79;98592.97;4837499;28;102474;-71
2023/04/20 18:12:26;;;;;;;;;2.25;2.25;;;;;12.45;71.78;98593.22;4849370;28;109305;-71
2023/04/20 18:15:15;;;;;;;;;3.00;3.00;;;;;12.26;72.80;98596.78;4843958;28;102296;-71
2023/04/20 18:17:51;;;;;;;;;4.00;3.00;;;;;12.14;73.37;98593.06;4842881;28;101955;-72
2023/04/20 18:20:18;;;;;;;;;5.75;5.00;;;;;12.10;74.68;98602.66;4844394;28;102459;-70
2023/04/20 18:22:47;;;;;;;;;10.25;5.00;;;;;12.06;75.68;98604.13;4842020;28;104145;-71
2023/04/20 18:25:18;;;;;;;;;3.00;3.00;;;;;12.08;74.29;98602.88;4847678;28;102169;-70
2023/04/20 18:27:46;;;;;;;;;5.00;5.00;;;;;12.05;75.55;98603.31;4843210;28;102293;-71
2023/04/20 18:30:13;;;;;;;;;6.00;6.00;;;;;12.01;74.32;98610.19;4846888;28;102477;-71
2023/04/20 18:32:41;;;;;;;;;5.25;5.25;;;;;11.97;75.48;98608.09;4823418;28;109080;-71
2023/04/20 18:35:10;;;;;;;;;12.25;9.75;;;;;11.88;76.68;98598.53;4831167;28;102596;-71
2023/04/20 18:37:37;;;;;;;;;10.00;6.50;;;;;11.86;77.32;98593.31;4839217;28;102763;-71
2023/04/20 18:40:06;;;;;;;;;7.00;6.75;;;;;11.89;77.16;98603.72;4843774;28;101890;-71
2023/04/20 18:42:41;;;;;;;;;7.00;6.00;;;;;11.87;76.77;98602.28;4844249;28;103138;-71
2023/04/20 18:45:36;;;;;;;;;6.00;4.00;;;;;11.82;76.85;98610.19;4824444;28;102353;-71
2023/04/20 18:48:03;;;;;;;;;6.50;5.00;;;;;11.78;76.25;98606.22;4821660;28;102043;-70
2023/04/20 18:50:31;;;;;;;;;4.00;3.75;;;;;11.70;76.07;98604.53;4838682;28;102538;-71
2023/04/20 18:52:58;;;;;;;;;6.00;5.00;;;;;11.57;76.44;98601.81;4846457;28;104114;-71
2023/04/20 18:55:28;;;;;;;;;5.00;4.25;;;;;11.46;76.42;98614.09;4842436;28;102296;-70
2023/04/20 18:57:57;;;;;;;;;5.75;5.00;;;;;11.33;77.72;98605.97;4825453;28;102278;-72
2023/04/20 19:00:27;;;;;;;;;8.50;8.25;;;;;11.06;79.09;98601.53;4844326;28;102181;-71
2023/04/20 19:02:56;;;;;;;;;11.75;10.00;;;;;11.06;78.70;98604.22;4841209;28;107728;-71
2023/04/20 19:05:25;;;;;;;;;8.50;8.25;;;;;10.88;79.79;98614.78;4854486;28;101951;-71
2023/04/20 19:07:54;;;;;;;;;10.25;8.25;;;;;10.77;80.07;98618.06;4837132;28;103363;-71
2023/04/20 19:10:22;;;;;;;;;10.00;9.50;;;;;10.63;81.17;98623.41;4844850;28;102091;-72
2023/04/20 19:12:49;;;;;;;;;11.00;9.25;;;;;10.53;81.42;98624.81;4843269;28;104083;-72
2023/04/20 19:15:25;;;;;;;;;14.00;12.25;;;;;10.33;82.35;98622.00;4824688;28;102212;-72
2023/04/20 19:17:54;;;;;;;;;19.50;14.00;;;;;10.28;83.41;98613.66;4845411;28;102776;-72
2023/04/20 19:20:25;;;;;;;;;16.75;15.25;;;;;10.25;84.52;98616.75;4843218;28;102169;-71
2023/04/20 19:22:52;;;;;;;;;13.50;13.25;;;;;10.15;84.95;98618.94;4838355;28;104023;-72
2023/04/20 19:25:19;;;;;;;;;11.50;10.50;;;;;10.16;84.29;98612.56;4828686;28;101923;-72
2023/04/20 19:27:46;;;;;;;;;14.25;11.50;;;;;10.19;83.28;98617.53;4842001;28;102684;-72
2023/04/20 19:30:13;;;;;;;;;10.75;10.75;;;;;10.19;82.97;98610.28;4841884;28;102399;-71
2023/04/20 19:32:40;;;;;;;;;33.50;27.50;;;;;9.95;85.19;98612.59;4834555;28;105064;-71
2023/04/20 19:35:07;;;;;;;;;24.00;23.75;;;;;9.83;85.72;98610.41;4846664;28;102308;-73
2023/04/20 19:37:34;;;;;;;;;38.75;31.00;;;;;9.62;86.48;98607.75;4847517;28;102226;-73
2023/04/20 19:40:01;;;;;;;;;41.50;33.75;;;;;9.53;87.12;98608.09;4845592;28;102577;-72
2023/04/20 19:42:28;;;;;;;;;36.25;33.50;;;;;9.42;87.69;98612.13;4822360;28;104033;-72
2023/04/20 19:44:55;;;;;;;;;33.75;29.00;;;;;9.32;88.44;98607.03;4839500;28;102249;-72
2023/04/20 19:47:22;;;;;;;;;34.75;32.00;;;;;9.29;88.40;98606.59;4844943;28;102203;-72
2023/04/20 19:49:49;;;;;;;;;30.00;26.75;;;;;9.26;88.63;98613.22;4848340;28;102027;-72
2023/04/20 19:52:16;;;;;;;;;41.25;35.75;;;;;9.17;89.27;98613.53;4837970;28;108811;-72
2023/04/20 19:54:43;;;;;;;;;44.00;37.00;;;;;9.13;90.13;98609.56;4830032;28;102429;-71
2023/04/20 19:57:10;;;;;;;;;41.50;35.50;;;;;9.09;90.66;98605.59;4843215;28;102297;-72
2023/04/20 19:59:38;;;;;;;;;55.25;41.75;;;;;8.99;91.32;98602.34;4839907;28;102133;-73
2023/04/20 20:02:06;;;;;;;;;52.00;40.75;;;;;8.89;93.18;98606.19;4839898;28;104045;-72
2023/04/20 20:04:36;;;;;;;;;41.50;37.00;;;;;8.95;93.18;98599.22;4836946;28;102212;-71
2023/04/20 20:07:03;;;;;;;;;47.75;39.75;;;;;8.93;94.51;98603.94;4835844;28;102078;-72
2023/04/20 20:09:39;;;;;;;;;51.50;41.00;;;;;8.83;95.73;98600.72;4842073;28;102364;-73
2023/04/20 20:12:49;;;;;;;;;52.50;41.00;;;;;8.82;94.75;98594.50;4833457;28;107466;-72
2023/04/20 20:15:16;;;;;;;;;46.00;38.75;;;;;8.88;94.02;98601.81;4835098;28;102190;-73
2023/04/20 20:17:45;;;;;;;;;40.75;32.75;;;;;8.96;93.62;98598.16;4835708;28;102249;-72
2023/04/20 20:20:14;;;;;;;;;37.50;34.00;;;;;9.02;92.46;98599.25;4839574;28;102100;-72
2023/04/20 20:22:47;;;;;;;;;35.25;32.25;;;;;9.02;93.26;98591.16;4832709;28;104088;-72
2023/04/20 20:25:14;;;;;;;;;37.25;33.50;;;;;9.01;93.40;98590.34;4828170;28;102471;-72
2023/04/20 20:27:41;;;;;;;;;37.25;33.50;;;;;9.04;92.81;98586.44;4844950;28;102403;-72
2023/04/20 20:30:09;;;;;;;;;38.75;30.25;;;;;9.08;93.17;98588.56;4839859;28;102101;-71
2023/04/20 20:32:36;;;;;;;;;35.50;30.00;;;;;9.16;92.52;98585.72;4837465;28;104164;-73
2023/04/20 20:35:04;;;;;;;;;27.50;25.25;;;;;9.27;91.29;98589.78;4843045;28;101853;-71
2023/04/20 20:37:33;;;;;;;;;33.75;29.50;;;;;9.35;90.94;98595.06;4846743;28;102353;-72
2023/04/20 20:40:04;;;;;;;;;24.75;23.00;;;;;9.39;92.56;98596.31;4840947;28;102206;-71
2023/04/20 20:42:33;;;;;;;;;20.50;18.25;;;;;9.45;91.89;98608.22;4837273;28;107938;-72
2023/04/20 20:45:00;;;;;;;;;16.75;15.50;;;;;9.49;90.51;98586.06;4841115;28;103215;-72
2023/04/20 20:47:26;;;;;;;;;17.25;15.00;;;;;9.55;89.49;98596.03;4842028;28;102392;-72
2023/04/20 20:49:53;;;;;;;;;17.75;15.75;;;;;9.57;89.46;98595.88;4847637;28;102367;-71
2023/04/20 20:52:20;;;;;;;;;15.25;14.25;;;;;9.59;89.26;98597.31;4840186;28;104064;-72
2023/04/20 20:54:47;;;;;;;;;11.75;11.75;;;;;9.62;89.38;98599.66;4844928;28;102355;-72
2023/04/20 20:57:14;;;;;;;;;13.00;12.50;;;;;9.57;88.65;98599.41;4846437;28;102257;-73
2023/04/20 20:59:41;;;;;;;;;16.50;12.50;;;;;9.26;88.06;98553.88;4845670;28;102384;-72
2023/04/20 21:02:08;;;;;;;;;18.00;16.75;;;;;9.48;88.30;98599.72;4837811;28;103085;-72
2023/04/20 21:04:36;;;;;;;;;14.50;12.75;;;;;9.44;88.42;98598.44;4839621;28;104754;-71
2023/04/20 21:07:03;;;;;;;;;16.75;15.00;;;;;9.25;89.16;98589.13;4854830;28;102342;-71
2023/04/20 21:09:29;;;;;;;;;13.50;11.25;;;;;9.30;88.48;98608.28;4822065;28;103217;-71
2023/04/20 21:11:59;;;;;;;;;16.25;14.00;;;;;9.25;89.82;98602.63;4842434;28;104272;-71
2023/04/20 21:14:26;;;;;;;;;10.50;9.75;;;;;9.23;88.98;98602.00;4770686;28;102515;-71
2023/04/20 21:16:53;;;;;;;;;10.00;9.50;;;;;9.17;89.18;98605.44;4834767;28;102492;-71
2023/04/20 21:19:21;;;;;;;;;14.50;10.00;;;;;9.12;89.18;98600.63;4847510;28;102692;-71
2023/04/20 21:21:47;;;;;;;;;12.25;11.75;;;;;9.06;89.72;98604.09;4841827;28;104240;-71
2023/04/20 21:24:15;;;;;;;;;14.25;11.50;;;;;9.00;89.61;98606.72;4839105;28;102200;-71
2023/04/20 21:26:42;;;;;;;;;16.25;13.75;;;;;8.96;89.36;98612.47;4842613;28;102434;-71
2023/04/20 21:29:08;;;;;;;;;15.00;12.00;;;;;8.95;89.71;98594.66;4851835;28;102476;-71
2023/04/20 21:31:35;;;;;;;;;17.75;13.50;;;;;8.93;90.55;98602.09;4844494;28;103998;-71
2023/04/20 21:34:02;;;;;;;;;17.50;15.75;;;;;8.90;90.47;98601.63;4840100;28;102265;-71